createdAt,value
2018-05-14T00:01:08.770Z,101407.88
2018-05-14T00:03:36.880Z,101411.29
2018-05-14T00:06:05.810Z,101403.48
2018-05-14T00:08:33.909Z,101407.11
2018-05-14T00:11:02.017Z,101399.27
2018-05-14T00:13:30.135Z,101392.80
2018-05-14T00:15:58.238Z,101397.62
2018-05-14T00:18:26.369Z,101395.34
2018-05-14T00:20:54.554Z,101397.80
2018-05-14T00:23:22.657Z,101387.23
2018-05-14T00:25:51.026Z,101389.06
2018-05-14T00:28:19.150Z,101378.48
2018-05-14T00:30:48.123Z,101380.48
2018-05-14T00:33:16.245Z,101372.87
2018-05-14T00:35:45.660Z,101373.79
2018-05-14T00:38:13.748Z,101366.71
2018-05-14T00:40:41.876Z,101358.27
2018-05-14T00:43:10.273Z,101352.86
2018-05-14T00:45:38.376Z,101351.11
2018-05-14T00:48:06.509Z,101353.50
2018-05-14T00:50:34.639Z,101353.80
2018-05-14T00:53:02.733Z,101357.50
2018-05-14T00:55:30.848Z,101347.44
2018-05-14T00:57:58.973Z,101344.46
2018-05-14T01:00:27.068Z,101351.81
2018-05-14T01:02:55.197Z,101363.97
2018-05-14T01:05:23.308Z,101363.73
2018-05-14T01:07:51.408Z,101358.66
2018-05-14T01:10:20.312Z,101352.40
2018-05-14T01:12:48.441Z,101351.69
2018-05-14T01:15:16.542Z,101344.78
2018-05-14T01:17:44.662Z,101343.52
2018-05-14T01:20:12.854Z,101339.41
2018-05-14T01:22:40.953Z,101328.25
2018-05-14T01:25:09.070Z,101312.99
2018-05-14T01:27:37.201Z,101314.05
2018-05-14T01:30:05.300Z,101312.55
2018-05-14T01:32:33.418Z,101311.84
2018-05-14T01:35:01.545Z,101331.32
2018-05-14T01:37:29.650Z,101324.70
2018-05-14T01:39:58.060Z,101324.70
2018-05-14T01:42:26.218Z,101330.08
2018-05-14T01:44:54.360Z,101331.91
2018-05-14T01:47:22.460Z,101323.28
2018-05-14T01:49:50.609Z,101330.84
2018-05-14T01:52:18.718Z,101335.60
2018-05-14T01:54:47.741Z,101344.83
2018-05-14T01:57:16.725Z,101346.99
2018-05-14T01:59:44.873Z,101335.41
2018-05-14T02:02:13.032Z,101338.80
2018-05-14T02:04:45.935Z,101342.91
2018-05-14T02:07:14.961Z,101344.77
2018-05-14T02:09:43.074Z,101343.65
2018-05-14T02:12:11.188Z,101343.95
2018-05-14T02:14:39.357Z,101347.20
2018-05-14T02:17:07.471Z,101346.41
2018-05-14T02:19:35.605Z,101350.98
2018-05-14T02:22:03.760Z,101361.66
2018-05-14T02:24:31.879Z,101358.08
2018-05-14T02:27:02.013Z,101362.75
2018-05-14T02:29:30.119Z,101362.30
2018-05-14T02:31:58.208Z,101361.42
2018-05-14T02:34:26.343Z,101375.53
2018-05-14T02:36:54.499Z,101375.82
2018-05-14T02:39:22.597Z,101368.07
2018-05-14T02:41:50.717Z,101394.19
2018-05-14T02:44:18.851Z,101384.88
2018-05-14T02:46:46.958Z,101392.47
2018-05-14T02:49:15.084Z,101398.63
2018-05-14T02:51:43.210Z,101391.83
2018-05-14T02:54:11.305Z,101390.82
2018-05-14T02:56:39.434Z,101385.27
2018-05-14T02:59:07.552Z,101381.11
2018-05-14T03:01:35.739Z,101364.97
2018-05-14T03:04:03.874Z,101366.36
2018-05-14T03:06:32.020Z,101358.69
2018-05-14T03:09:00.161Z,101362.40
2018-05-14T03:11:28.254Z,101363.44
2018-05-14T03:13:56.373Z,101372.39
2018-05-14T03:16:24.497Z,101365.71
2018-05-14T03:18:52.642Z,101362.77
2018-05-14T03:21:20.811Z,101354.83
2018-05-14T03:23:48.920Z,101378.77
2018-05-14T03:26:17.026Z,101371.14
2018-05-14T03:28:45.195Z,101381.18
2018-05-14T03:31:13.374Z,101377.18
2018-05-14T03:33:41.489Z,101373.79
2018-05-14T03:36:09.595Z,101374.55
2018-05-14T03:38:37.721Z,101372.47
2018-05-14T03:41:05.830Z,101365.84
2018-05-14T03:43:33.955Z,101362.56
2018-05-14T03:46:02.101Z,101360.76
2018-05-14T03:48:30.198Z,101347.31
2018-05-14T03:50:58.308Z,101347.03
2018-05-14T03:53:26.433Z,101345.23
2018-05-14T03:55:54.545Z,101351.63
2018-05-14T03:58:34.559Z,101345.25
2018-05-14T04:01:15.521Z,101349.70
2018-05-14T04:04:01.100Z,101347.72
2018-05-14T04:06:30.059Z,101355.11
2018-05-14T04:21:58.203Z,101357.17
2018-05-14T04:24:27.220Z,101360.05
2018-05-14T04:26:55.289Z,101361.75
2018-05-14T04:29:23.417Z,101362.04
2018-05-14T04:31:51.535Z,101368.37
2018-05-14T04:34:19.697Z,101364.64
2018-05-14T04:36:47.815Z,101373.44
2018-05-14T04:39:15.917Z,101373.31
2018-05-14T04:41:44.067Z,101375.84
2018-05-14T04:44:12.163Z,101377.02
2018-05-14T04:46:40.320Z,101368.59
2018-05-14T04:49:08.409Z,101366.41
2018-05-14T04:51:36.561Z,101369.36
2018-05-14T04:54:05.470Z,101360.92
2018-05-14T04:56:33.583Z,101360.82
2018-05-14T04:59:01.680Z,101365.14
2018-05-14T05:01:29.796Z,101369.84
2018-05-14T05:03:57.926Z,101363.06
2018-05-14T05:06:26.038Z,101366.80
2018-05-14T05:08:54.365Z,101368.45
2018-05-14T05:11:22.500Z,101374.00
2018-05-14T05:13:50.618Z,101384.44
2018-05-14T05:16:18.718Z,101385.89
2018-05-14T05:18:52.328Z,101390.41
2018-05-14T05:21:26.021Z,101374.06
2018-05-14T05:23:54.239Z,101371.93
2018-05-14T05:26:22.354Z,101379.89
2018-05-14T05:28:50.501Z,101375.14
2018-05-14T05:31:18.628Z,101378.95
2018-05-14T05:33:46.777Z,101374.27
2018-05-14T05:36:14.892Z,101367.98
2018-05-14T05:38:43.032Z,101367.81
2018-05-14T05:41:11.144Z,101363.08
2018-05-14T05:43:39.270Z,101367.55
2018-05-14T05:46:07.414Z,101362.41
2018-05-14T05:48:35.524Z,101363.31
2018-05-14T05:51:03.637Z,101360.41
2018-05-14T05:53:31.766Z,101359.28
2018-05-14T05:55:59.868Z,101366.02
2018-05-14T05:58:27.978Z,101363.95
2018-05-14T06:00:56.842Z,101366.20
2018-05-14T06:03:24.940Z,101364.52
2018-05-14T06:05:53.664Z,101362.40
2018-05-14T06:08:21.781Z,101372.48
2018-05-14T06:10:49.927Z,101365.17
2018-05-14T06:13:18.164Z,101362.45
2018-05-14T06:15:48.033Z,101356.22
2018-05-14T06:18:16.136Z,101357.56
2018-05-14T06:20:44.289Z,101354.59
2018-05-14T06:23:12.380Z,101362.30
2018-05-14T06:25:40.540Z,101367.36
2018-05-14T06:28:08.639Z,101364.73
2018-05-14T06:30:36.877Z,101359.49
2018-05-14T06:33:04.874Z,101361.73
2018-05-14T06:35:33.078Z,101349.17
2018-05-14T06:38:01.156Z,101358.49
2018-05-14T06:40:29.252Z,101352.83
2018-05-14T06:42:57.354Z,101351.13
2018-05-14T06:45:25.472Z,101353.05
2018-05-14T06:47:53.590Z,101354.17
2018-05-14T06:50:21.690Z,101354.22
2018-05-14T06:52:49.804Z,101357.11
2018-05-14T06:55:17.919Z,101356.43
2018-05-14T06:57:46.046Z,101354.81
2018-05-14T07:00:14.146Z,101354.71
2018-05-14T07:02:42.288Z,101360.09
2018-05-14T07:05:10.385Z,101363.87
2018-05-14T07:07:38.502Z,101359.59
2018-05-14T07:10:06.629Z,101359.83
2018-05-14T07:12:35.939Z,101362.70
2018-05-14T07:15:03.886Z,101368.89
2018-05-14T07:17:32.040Z,101364.55
2018-05-14T07:20:00.182Z,101366.53
2018-05-14T07:22:28.308Z,101365.19
2018-05-14T07:24:56.436Z,101369.73
2018-05-14T07:27:24.538Z,101366.05
2018-05-14T07:29:53.282Z,101365.23
2018-05-14T07:32:21.410Z,101364.38
2018-05-14T07:34:49.531Z,101362.50
2018-05-14T07:37:18.290Z,101368.09
2018-05-14T07:39:46.406Z,101367.19
2018-05-14T07:42:14.501Z,101375.25
2018-05-14T07:44:42.612Z,101368.87
2018-05-14T07:47:10.728Z,101376.03
2018-05-14T07:49:38.851Z,101384.05
2018-05-14T07:52:07.212Z,101385.01
2018-05-14T07:54:35.313Z,101376.37
2018-05-14T07:57:03.462Z,101384.25
2018-05-14T07:59:32.637Z,101378.52
2018-05-14T08:02:01.004Z,101387.06
2018-05-14T08:04:29.111Z,101382.25
2018-05-14T08:06:57.241Z,101373.89
2018-05-14T08:09:25.394Z,101374.88
2018-05-14T08:11:53.500Z,101375.98
2018-05-14T08:14:21.608Z,101377.89
2018-05-14T08:16:49.734Z,101378.97
2018-05-14T08:19:17.858Z,101383.06
2018-05-14T08:21:45.959Z,101374.72
2018-05-14T08:24:14.096Z,101377.59
2018-05-14T08:26:42.274Z,101375.76
2018-05-14T08:29:10.320Z,101380.64
2018-05-14T08:31:42.295Z,101383.06
2018-05-14T08:34:10.413Z,101384.59
2018-05-14T08:36:38.796Z,101394.22
2018-05-14T08:39:06.900Z,101390.89
2018-05-14T08:41:35.058Z,101384.81
2018-05-14T08:44:03.152Z,101393.51
2018-05-14T08:46:31.274Z,101387.06
2018-05-14T08:48:59.369Z,101383.84
2018-05-14T08:51:27.469Z,101385.94
2018-05-14T08:53:55.600Z,101382.82
2018-05-14T08:56:23.709Z,101385.89
2018-05-14T08:58:51.806Z,101378.44
2018-05-14T09:01:20.715Z,101385.80
2018-05-14T09:03:48.822Z,101383.61
2018-05-14T09:06:16.928Z,101378.55
2018-05-14T09:08:45.081Z,101375.42
2018-05-14T09:11:13.172Z,101375.66
2018-05-14T09:13:41.280Z,101378.97
2018-05-14T09:16:09.385Z,101372.42
2018-05-14T09:18:37.882Z,101369.28
2018-05-14T09:21:06.050Z,101359.70
2018-05-14T09:23:34.249Z,101361.67
2018-05-14T09:26:02.360Z,101367.05
2018-05-14T09:28:30.464Z,101358.72
2018-05-14T09:30:58.589Z,101349.95
2018-05-14T09:33:26.761Z,101351.64
2018-05-14T09:35:54.910Z,101350.75
2018-05-14T09:38:23.756Z,101355.00
2018-05-14T09:40:52.791Z,101355.72
2018-05-14T09:43:20.884Z,101349.66
2018-05-14T09:45:49.000Z,101343.59
2018-05-14T09:48:17.867Z,101342.92
2018-05-14T09:50:45.920Z,101347.94
2018-05-14T09:53:14.190Z,101341.12
2018-05-14T09:55:42.300Z,101347.34
2018-05-14T09:58:10.400Z,101343.72
2018-05-14T10:00:38.552Z,101348.28
2018-05-14T10:03:06.656Z,101346.43
2018-05-14T10:05:34.778Z,101354.67
2018-05-14T10:08:02.881Z,101352.75
2018-05-14T10:10:31.888Z,101355.62
2018-05-14T10:13:00.058Z,101363.22
2018-05-14T10:15:28.162Z,101362.57
2018-05-14T10:17:56.251Z,101357.05
2018-05-14T10:20:24.380Z,101352.20
2018-05-14T10:22:52.496Z,101355.52
2018-05-14T10:25:20.627Z,101351.23
2018-05-14T10:27:48.796Z,101352.77
2018-05-14T10:30:16.917Z,101355.06
2018-05-14T10:32:45.017Z,101354.88
2018-05-14T10:35:13.143Z,101350.53
2018-05-14T10:37:41.248Z,101347.59
2018-05-14T10:40:09.597Z,101362.55
2018-05-14T10:42:37.708Z,101364.44
2018-05-14T10:45:05.869Z,101354.48
2018-05-14T10:47:34.098Z,101350.62
2018-05-14T10:50:02.233Z,101356.23
2018-05-14T10:52:35.288Z,101353.98
2018-05-14T10:55:03.421Z,101361.00
2018-05-14T10:57:31.529Z,101353.31
2018-05-14T10:59:59.629Z,101350.23
2018-05-14T11:02:27.756Z,101347.44
2018-05-14T11:04:55.861Z,101346.00
2018-05-14T11:07:24.884Z,101347.12
2018-05-14T11:09:53.014Z,101347.28
2018-05-14T11:12:21.126Z,101348.14
2018-05-14T11:14:49.225Z,101344.50
2018-05-14T11:17:17.341Z,101346.22
2018-05-14T11:19:45.745Z,101350.06
2018-05-14T11:22:13.862Z,101350.30
2018-05-14T11:24:41.982Z,101346.08
2018-05-14T11:27:10.096Z,101343.41
2018-05-14T11:29:38.684Z,101351.02
2018-05-14T11:32:06.813Z,101363.06
2018-05-14T11:34:34.937Z,101362.48
2018-05-14T11:37:03.036Z,101362.39
2018-05-14T11:39:31.135Z,101362.31
2018-05-14T11:41:59.265Z,101359.98
2018-05-14T11:44:28.068Z,101355.64
2018-05-14T11:46:56.278Z,101370.89
2018-05-14T11:49:24.360Z,101354.12
2018-05-14T11:51:52.487Z,101357.38
2018-05-14T11:54:20.589Z,101352.69
2018-05-14T11:56:48.710Z,101353.23
2018-05-14T11:59:16.844Z,101361.21
2018-05-14T12:01:45.780Z,101357.30
2018-05-14T12:04:13.909Z,101347.98
2018-05-14T12:06:42.015Z,101360.95
2018-05-14T12:09:10.135Z,101353.50
2018-05-14T12:11:38.260Z,101357.17
2018-05-14T12:14:06.356Z,101358.17
2018-05-14T12:16:34.538Z,101354.41
2018-05-14T12:19:02.648Z,101353.81
2018-05-14T12:21:30.757Z,101353.68
2018-05-14T12:23:58.866Z,101360.45
2018-05-14T12:26:27.783Z,101353.66
2018-05-14T12:28:55.890Z,101360.38
2018-05-14T12:31:29.607Z,101357.30
2018-05-14T12:33:57.718Z,101357.83
2018-05-14T12:36:25.820Z,101357.20
2018-05-14T12:38:54.848Z,101355.39
2018-05-14T12:41:22.979Z,101352.74
2018-05-14T12:43:51.117Z,101351.86
2018-05-14T12:46:19.288Z,101346.86
2018-05-14T12:48:47.420Z,101350.33
2018-05-14T12:51:15.546Z,101351.11
2018-05-14T12:53:43.685Z,101349.48
2018-05-14T12:56:11.792Z,101339.39
2018-05-14T12:58:40.168Z,101341.59
2018-05-14T13:01:08.276Z,101344.61
2018-05-14T13:03:36.381Z,101347.77
2018-05-14T13:06:04.508Z,101351.80
2018-05-14T13:08:32.616Z,101347.24
2018-05-14T13:11:00.733Z,101342.43
2018-05-14T13:13:29.485Z,101346.88
2018-05-14T13:15:57.583Z,101339.38
2018-05-14T13:18:25.697Z,101335.01
2018-05-14T13:20:53.865Z,101344.08
2018-05-14T13:23:21.960Z,101335.37
2018-05-14T13:25:50.077Z,101343.00
2018-05-14T13:28:18.224Z,101334.54
2018-05-14T13:30:46.334Z,101337.98
2018-05-14T13:33:14.473Z,101334.23
2018-05-14T13:35:42.611Z,101333.06
2018-05-14T13:38:10.716Z,101336.67
2018-05-14T13:40:38.829Z,101346.08
2018-05-14T13:43:06.949Z,101342.13
2018-05-14T13:45:35.078Z,101335.10
2018-05-14T13:48:03.281Z,101333.89
2018-05-14T13:50:31.383Z,101342.11
2018-05-14T13:52:59.487Z,101340.19
2018-05-14T13:55:27.589Z,101339.84
2018-05-14T13:57:55.736Z,101333.78
2018-05-14T14:00:23.847Z,101339.14
2018-05-14T14:02:51.957Z,101333.14
2018-05-14T14:05:20.081Z,101334.08
2018-05-14T14:07:53.905Z,101332.16
2018-05-14T14:10:22.054Z,101330.91
2018-05-14T14:12:50.181Z,101326.92
2018-05-14T14:15:18.290Z,101325.27
2018-05-14T14:17:46.438Z,101325.19
2018-05-14T14:20:14.561Z,101325.45
2018-05-14T14:22:42.677Z,101326.27
2018-05-14T14:25:10.785Z,101340.39
2018-05-14T14:27:38.909Z,101337.03
2018-05-14T14:30:07.010Z,101333.92
2018-05-14T14:32:35.115Z,101337.83
2018-05-14T14:35:03.246Z,101332.23
2018-05-14T14:37:31.357Z,101335.67
2018-05-14T14:39:59.449Z,101337.23
2018-05-14T14:42:27.574Z,101336.82
2018-05-14T14:44:55.697Z,101327.55
2018-05-14T14:47:23.805Z,101340.27
2018-05-14T14:49:51.929Z,101329.55
2018-05-14T14:52:20.367Z,101327.69
2018-05-14T14:54:48.470Z,101330.13
2018-05-14T14:57:16.578Z,101331.35
2018-05-14T14:59:44.997Z,101340.25
2018-05-14T15:02:13.113Z,101335.34
2018-05-14T15:04:41.228Z,101340.80
2018-05-14T15:07:09.366Z,101343.17
2018-05-14T15:09:37.512Z,101342.37
2018-05-14T15:12:05.631Z,101342.77
2018-05-14T15:14:33.762Z,101346.34
2018-05-14T15:17:01.934Z,101345.52
2018-05-14T15:19:30.042Z,101348.80
2018-05-14T15:21:59.114Z,101352.22
2018-05-14T15:24:27.217Z,101353.77
2018-05-14T15:26:55.325Z,101354.11
2018-05-14T15:29:23.434Z,101359.26
2018-05-14T15:31:51.665Z,101355.22
2018-05-14T15:34:19.781Z,101354.30
2018-05-14T15:36:47.886Z,101367.27
2018-05-14T15:39:16.836Z,101354.09
2018-05-14T15:41:44.945Z,101354.19
2018-05-14T15:44:13.050Z,101349.78
2018-05-14T15:46:41.225Z,101345.02
2018-05-14T15:49:09.846Z,101345.37
2018-05-14T15:51:37.969Z,101338.80
2018-05-14T15:54:06.099Z,101344.89
2018-05-14T15:56:34.217Z,101346.98
2018-05-14T15:59:02.294Z,101340.37
2018-05-14T16:01:30.415Z,101335.39
2018-05-14T16:03:58.525Z,101343.23
2018-05-14T16:06:26.738Z,101344.91
2018-05-14T16:08:54.859Z,101343.12
2018-05-14T16:11:22.963Z,101352.88
2018-05-14T16:13:51.091Z,101341.70
2018-05-14T16:16:19.217Z,101347.08
2018-05-14T16:18:47.399Z,101345.23
2018-05-14T16:21:15.507Z,101348.53
2018-05-14T16:23:43.623Z,101348.99
2018-05-14T16:26:11.725Z,101355.87
2018-05-14T16:28:39.846Z,101346.74
2018-05-14T16:31:07.981Z,101355.68
2018-05-14T16:33:36.109Z,101351.42
2018-05-14T16:36:04.229Z,101351.31
2018-05-14T16:38:34.001Z,101356.82
2018-05-14T16:41:02.149Z,101346.91
2018-05-14T16:43:30.255Z,101355.87
2018-05-14T16:45:58.381Z,101355.05
2018-05-14T16:48:27.311Z,101360.87
2018-05-14T16:50:55.461Z,101361.42
2018-05-14T16:53:23.613Z,101358.06
2018-05-14T16:55:51.737Z,101357.05
2018-05-14T16:58:19.945Z,101362.26
2018-05-14T17:00:48.062Z,101354.97
2018-05-14T17:03:16.171Z,101360.33
2018-05-14T17:05:44.285Z,101365.22
2018-05-14T17:08:12.387Z,101353.81
2018-05-14T17:10:40.592Z,101357.25
2018-05-14T17:13:08.715Z,101355.39
2018-05-14T17:15:36.846Z,101370.90
2018-05-14T17:18:04.945Z,101374.40
2018-05-14T17:20:33.062Z,101367.95
2018-05-14T17:23:01.172Z,101366.24
2018-05-14T17:25:29.296Z,101377.42
2018-05-14T17:27:57.481Z,101380.39
2018-05-14T17:30:25.641Z,101384.89
2018-05-14T17:32:53.744Z,101363.27
2018-05-14T17:35:21.855Z,101375.30
2018-05-14T17:37:49.971Z,101370.20
2018-05-14T17:40:18.094Z,101367.62
2018-05-14T17:42:46.212Z,101365.23
2018-05-14T17:45:14.337Z,101371.58
2018-05-14T17:47:42.456Z,101377.41
2018-05-14T17:50:10.596Z,101381.53
2018-05-14T17:52:38.712Z,101383.72
2018-05-14T17:55:06.828Z,101382.02
2018-05-14T17:57:35.744Z,101380.69
2018-05-14T18:00:04.632Z,101383.76
2018-05-14T18:02:32.742Z,101384.27
2018-05-14T18:05:00.862Z,101386.24
2018-05-14T18:07:29.030Z,101383.64
2018-05-14T18:09:57.185Z,101391.30
2018-05-14T18:12:25.301Z,101388.16
2018-05-14T18:14:53.432Z,101398.51
2018-05-14T18:17:21.615Z,101394.81
2018-05-14T18:19:55.222Z,101392.81
2018-05-14T18:22:26.058Z,101394.42
2018-05-14T18:25:00.044Z,101397.83
2018-05-14T18:27:32.414Z,101402.75
2018-05-14T18:30:06.972Z,101398.47
2018-05-14T18:32:35.217Z,101405.25
2018-05-14T18:35:09.306Z,101405.56
2018-05-14T18:37:37.428Z,101406.16
2018-05-14T18:40:05.588Z,101412.80
2018-05-14T18:42:33.737Z,101411.23
2018-05-14T18:45:01.863Z,101412.80
2018-05-14T18:47:31.694Z,101413.30
2018-05-14T18:50:00.200Z,101411.95
2018-05-14T18:52:28.302Z,101410.99
2018-05-14T18:54:56.415Z,101418.77
2018-05-14T18:57:24.554Z,101418.20
2018-05-14T18:59:52.717Z,101424.80
2018-05-14T19:02:20.864Z,101423.87
2018-05-14T19:04:48.986Z,101435.29
2018-05-14T19:07:17.081Z,101432.11
2018-05-14T19:09:45.255Z,101436.84
2018-05-14T19:12:13.364Z,101435.81
2018-05-14T19:14:41.478Z,101436.17
2018-05-14T19:20:15.216Z,101448.02
2018-05-14T19:22:48.890Z,101449.80
2018-05-14T19:25:17.001Z,101449.54
2018-05-14T19:27:50.654Z,101455.23
2018-05-14T19:30:18.772Z,101454.80
2018-05-14T19:32:46.889Z,101457.88
2018-05-14T19:35:20.690Z,101463.00
2018-05-14T19:37:48.798Z,101470.48
2018-05-14T19:40:22.563Z,101467.72
2018-05-14T19:42:50.678Z,101473.53
2018-05-14T19:45:18.794Z,101477.78
2018-05-14T19:47:46.920Z,101475.23
2018-05-14T19:50:15.035Z,101487.47
2018-05-14T19:52:43.374Z,101481.83
2018-05-14T19:55:11.484Z,101477.87
2018-05-14T19:57:39.610Z,101481.77
2018-05-14T20:00:07.747Z,101488.01
2018-05-14T20:02:35.878Z,101486.45
2018-05-14T20:05:04.104Z,101489.16
2018-05-14T20:07:32.217Z,101486.55
2018-05-14T20:10:00.342Z,101488.30
2018-05-14T20:12:28.451Z,101488.73
2018-05-14T20:14:56.587Z,101481.06
2018-05-14T20:17:24.730Z,101491.31
2018-05-14T20:19:52.848Z,101485.39
2018-05-14T20:22:21.012Z,101489.20
2018-05-14T20:24:49.120Z,101484.67
2018-05-14T20:27:17.700Z,101494.55
2018-05-14T20:29:45.876Z,101488.04
2018-05-14T20:32:14.011Z,101484.25
2018-05-14T20:34:42.142Z,101484.87
2018-05-14T20:37:10.398Z,101491.05
2018-05-14T20:39:38.404Z,101496.13
2018-05-14T20:42:06.523Z,101492.14
2018-05-14T20:44:34.636Z,101489.95
2018-05-14T20:47:02.762Z,101495.30
2018-05-14T20:49:30.906Z,101500.09
2018-05-14T20:51:59.025Z,101503.63
2018-05-14T20:54:27.968Z,101499.77
2018-05-14T20:56:56.086Z,101506.14
2018-05-14T20:59:25.030Z,101505.02
2018-05-14T21:01:53.142Z,101511.81
2018-05-14T21:04:21.246Z,101512.34
2018-05-14T21:06:49.362Z,101512.28
2018-05-14T21:09:17.514Z,101518.45
2018-05-14T21:11:45.690Z,101506.41
2018-05-14T21:14:13.826Z,101516.70
2018-05-14T21:16:42.030Z,101516.47
2018-05-14T21:19:10.174Z,101518.98
2018-05-14T21:21:39.046Z,101516.34
2018-05-14T21:24:07.275Z,101523.20
2018-05-14T21:26:35.457Z,101522.95
2018-05-14T21:29:03.982Z,101526.14
2018-05-14T21:31:32.165Z,101525.02
2018-05-14T21:34:02.290Z,101526.22
2018-05-14T21:36:30.780Z,101528.59
2018-05-14T21:38:58.934Z,101534.67
2018-05-14T21:54:22.123Z,101525.45
2018-05-14T21:56:50.270Z,101517.79
2018-05-14T21:59:18.712Z,101516.51
2018-05-14T22:01:46.910Z,101517.20
2018-05-14T22:04:15.148Z,101523.41
2018-05-14T22:06:44.463Z,101524.41
2018-05-14T22:09:13.172Z,101529.34
2018-05-14T22:11:41.338Z,101526.79
2018-05-14T22:14:09.441Z,101522.05
2018-05-14T22:16:38.556Z,101521.16
2018-05-14T22:19:06.952Z,101518.29
2018-05-14T22:21:35.242Z,101526.38
2018-05-14T22:24:03.370Z,101517.63
2018-05-14T22:26:31.564Z,101518.94
2018-05-14T22:29:00.670Z,101514.33
2018-05-14T22:31:28.806Z,101511.75
2018-05-14T22:33:57.266Z,101512.44
2018-05-14T22:36:25.380Z,101508.64
2018-05-14T22:38:53.530Z,101511.36
2018-05-14T22:41:22.658Z,101514.75
2018-05-14T22:43:52.223Z,101511.19
2018-05-14T22:46:21.147Z,101508.17
2018-05-14T22:48:50.998Z,101506.83
2018-05-14T22:51:19.222Z,101507.95
2018-05-14T22:53:47.429Z,101509.28
2018-05-14T22:56:20.514Z,101508.87
2018-05-14T22:58:48.672Z,101506.56
2018-05-14T23:01:16.843Z,101502.83
2018-05-14T23:03:45.032Z,101498.66
2018-05-14T23:06:14.186Z,101500.12
2018-05-14T23:08:44.112Z,101500.65
2018-05-14T23:11:12.232Z,101502.00
2018-05-14T23:13:40.802Z,101509.38
2018-05-14T23:16:09.450Z,101505.77
2018-05-14T23:18:37.802Z,101508.97
2018-05-14T23:21:06.833Z,101511.50
2018-05-14T23:23:36.728Z,101508.36
2018-05-14T23:26:05.009Z,101507.60
2018-05-14T23:28:33.251Z,101517.08
2018-05-14T23:31:01.381Z,101512.16
2018-05-14T23:33:29.491Z,101510.05
2018-05-14T23:35:58.991Z,101514.05
2018-05-14T23:38:27.123Z,101510.65
2018-05-14T23:40:55.247Z,101519.15
2018-05-14T23:43:24.081Z,101513.12
2018-05-14T23:45:52.568Z,101511.92
2018-05-14T23:48:21.259Z,101511.02
2018-05-14T23:50:50.258Z,101509.62
2018-05-14T23:53:18.370Z,101500.55
2018-05-14T23:55:46.498Z,101504.78
2018-05-14T23:58:14.604Z,101506.56
